Time;durP1;ratioP1;P1;durP2;ratioP2;P2;SDS_P1;SDS_P2;PMS_P1;PMS_P2;Temp;Humidity;BMP_temperature;BMP_pressure;BME280_temperature;BME280_humidity;BME280_pressure;Samples;Min_cycle;Max_cycle;Signal;HPM_P1;HPM_P2
2021/01/19 00:00:09;;;;;;;87.23;35.47;;;;;;;1.17;100.00;100718.25;5023425;28;20098;-79
2021/01/19 00:02:35;;;;;;;82.37;37.07;;;;;;;1.15;100.00;100714.75;5036459;28;20045;-79
2021/01/19 00:05:01;;;;;;;98.97;41.23;;;;;;;1.14;100.00;100723.41;5019834;28;20095;-79
2021/01/19 00:07:28;;;;;;;90.40;39.17;;;;;;;1.10;100.00;100717.28;5014293;28;20101;-78
2021/01/19 00:09:54;;;;;;;90.03;36.57;;;;;;;1.11;100.00;100720.75;5015485;28;20047;-78
2021/01/19 00:12:21;;;;;;;83.33;34.80;;;;;;;1.13;100.00;100716.47;5015536;28;20045;-78
2021/01/19 00:14:47;;;;;;;80.43;34.70;;;;;;;1.13;100.00;100717.34;5017231;28;20041;-79
2021/01/19 00:17:14;;;;;;;81.87;34.63;;;;;;;1.15;100.00;100719.97;5033257;28;20087;-79
2021/01/19 00:19:40;;;;;;;91.30;37.07;;;;;;;1.18;100.00;100711.31;5034123;28;20590;-78
2021/01/19 00:22:09;;;;;;;82.40;34.80;;;;;;;1.19;100.00;100715.69;5034167;28;20067;-78
2021/01/19 00:24:35;;;;;;;81.23;35.80;;;;;;;1.21;100.00;100714.88;5033832;28;20053;-78
2021/01/19 00:27:01;;;;;;;88.83;37.50;;;;;;;1.21;100.00;100716.59;5025412;28;20052;-78
2021/01/19 00:29:27;;;;;;;80.87;36.37;;;;;;;1.27;100.00;100719.31;5042646;28;20044;-79
2021/01/19 00:31:53;;;;;;;83.13;36.47;;;;;;;1.33;100.00;100707.28;5031026;28;20045;-79
2021/01/19 00:34:20;;;;;;;72.17;33.87;;;;;;;1.27;100.00;100703.72;5043735;28;20256;-78
2021/01/19 00:36:49;;;;;;;86.53;35.10;;;;;;;1.25;100.00;100706.25;5031255;28;20098;-78
2021/01/19 00:39:15;;;;;;;80.57;33.73;;;;;;;1.25;100.00;100700.19;5014586;28;20041;-78
2021/01/19 00:41:45;;;;;;;74.47;33.47;;;;;;;1.24;100.00;100708.84;5018136;28;20049;-79
2021/01/19 00:44:11;;;;;;;71.73;31.67;;;;;;;1.22;100.00;100713.16;5030508;28;20037;-78
2021/01/19 00:46:38;;;;;;;79.40;33.50;;;;;;;1.18;100.00;100704.41;5033068;28;20101;-78
2021/01/19 00:49:04;;;;;;;76.43;31.70;;;;;;;1.15;100.00;100706.94;5048368;28;20083;-78
2021/01/19 00:51:37;;;;;;;71.63;32.67;;;;;;;1.18;100.00;100707.03;5030497;28;20383;-78
2021/01/19 00:54:05;;;;;;;78.40;35.93;;;;;;;1.20;100.00;100702.72;5013687;28;20068;-78
2021/01/19 00:56:36;;;;;;;79.87;36.30;;;;;;;1.21;100.00;100712.28;5017024;28;20040;-78
2021/01/19 00:59:02;;;;;;;67.73;31.60;;;;;;;1.22;100.00;100702.72;5046674;28;20041;-79
2021/01/19 01:01:28;;;;;;;81.43;34.30;;;;;;;1.21;100.00;100701.00;5014230;28;20558;-78
2021/01/19 01:03:55;;;;;;;82.00;36.60;;;;;;;1.19;100.00;100705.28;5029282;28;20094;-79
2021/01/19 01:06:21;;;;;;;77.77;35.47;;;;;;;1.18;100.00;100701.81;5013784;28;20033;-78
2021/01/19 01:08:47;;;;;;;71.57;31.97;;;;;;;1.16;100.00;100705.22;5025125;28;20086;-78
2021/01/19 01:11:13;;;;;;;75.17;36.10;;;;;;;1.13;100.00;100698.25;5012596;28;20537;-78
2021/01/19 01:13:40;;;;;;;79.90;31.90;;;;;;;1.19;100.00;100698.38;5056750;28;20116;-78
2021/01/19 01:16:07;;;;;;;86.13;35.13;;;;;;;1.19;100.00;100693.16;5049689;28;20064;-78
2021/01/19 01:18:34;;;;;;;83.50;34.50;;;;;;;1.28;100.00;100695.03;5031442;28;20041;-79
2021/01/19 01:21:00;;;;;;;88.60;36.37;;;;;;;1.22;100.00;100687.13;5013177;28;20057;-78
2021/01/19 01:23:26;;;;;;;81.13;34.53;;;;;;;1.18;100.00;100691.41;5031201;28;20148;-78
2021/01/19 01:25:53;;;;;;;84.30;36.00;;;;;;;1.18;100.00;100688.81;5016810;28;20049;-78
2021/01/19 01:28:19;;;;;;;81.90;34.90;;;;;;;1.12;100.00;100689.56;5033939;28;20041;-78
2021/01/19 01:30:46;;;;;;;84.90;38.37;;;;;;;1.17;100.00;100687.03;5016662;28;20056;-79
2021/01/19 01:33:12;;;;;;;81.63;36.50;;;;;;;1.18;100.00;100678.41;5033140;28;20560;-78
2021/01/19 01:35:39;;;;;;;74.67;33.87;;;;;;;1.22;100.00;100685.41;5033887;28;20052;-79
2021/01/19 01:38:05;;;;;;;87.83;35.60;;;;;;;1.20;100.00;100679.28;5013105;28;20060;-78
2021/01/19 01:40:31;;;;;;;72.47;32.37;;;;;;;1.16;100.00;100681.78;5003992;28;20047;-79
2021/01/19 01:42:58;;;;;;;79.67;32.13;;;;;;;1.15;100.00;100675.72;5016081;28;20444;-78
2021/01/19 01:45:27;;;;;;;81.07;35.13;;;;;;;1.18;100.00;100674.88;5031524;28;20090;-79
2021/01/19 01:47:56;;;;;;;77.07;33.53;;;;;;;1.08;100.00;100672.13;5016699;28;20116;-78
2021/01/19 01:50:24;;;;;;;77.13;35.03;;;;;;;1.10;100.00;100670.44;5000069;28;20086;-78
2021/01/19 01:52:51;;;;;;;82.67;35.07;;;;;;;1.14;100.00;100668.78;5032388;28;20107;-78
2021/01/19 01:55:19;;;;;;;75.73;33.73;;;;;;;1.18;100.00;100668.00;5017356;28;20037;-79
2021/01/19 01:57:48;;;;;;;79.30;35.03;;;;;;;1.13;100.00;100664.41;5047689;28;20045;-78
2021/01/19 02:00:14;;;;;;;80.17;34.57;;;;;;;1.10;100.00;100662.66;5031426;28;20547;-78
2021/01/19 02:02:55;;;;;;;87.67;37.00;;;;;;;1.14;100.00;100663.56;5034772;28;20057;-79
2021/01/19 02:05:22;;;;;;;73.33;32.17;;;;;;;1.15;100.00;100659.22;5036822;28;20044;-79
2021/01/19 02:08:15;;;;;;;83.17;34.07;;;;;;;1.14;100.00;100655.75;5037789;28;20708;-79
2021/01/19 02:11:04;;;;;;;72.53;32.53;;;;;;;1.19;100.00;100654.13;5008746;28;20041;-78
2021/01/19 02:14:00;;;;;;;76.37;33.23;;;;;;;1.15;100.00;100654.03;5017217;28;20047;-79
2021/01/19 02:16:28;;;;;;;80.07;34.03;;;;;;;1.13;100.00;100647.06;5011612;28;20053;-79
2021/01/19 02:19:16;;;;;;;82.73;35.33;;;;;;;1.14;100.00;100650.56;5049172;28;20041;-78
2021/01/19 02:22:05;;;;;;;75.53;30.93;;;;;;;1.19;100.00;100635.03;5019875;28;20147;-78
2021/01/19 02:24:35;;;;;;;77.87;31.17;;;;;;;1.20;100.00;100639.38;4999730;28;20040;-79
2021/01/19 02:27:13;;;;;;;77.50;30.67;;;;;;;1.16;100.00;100643.66;5030706;28;20033;-79
2021/01/19 02:29:54;;;;;;;75.93;33.20;;;;;;;1.15;100.00;100652.31;5041402;28;20285;-79
2021/01/19 02:32:42;;;;;;;68.37;31.87;;;;;;;1.21;100.00;100646.34;5055215;28;20044;-79
2021/01/19 02:35:23;;;;;;;66.83;31.80;;;;;;;1.16;100.00;100651.44;5040492;28;20045;-78
2021/01/19 02:38:12;;;;;;;62.87;28.97;;;;;;;1.14;100.00;100653.16;5031912;28;20056;-79
2021/01/19 02:40:38;;;;;;;74.70;31.00;;;;;;;1.13;100.00;100654.00;5029303;28;20045;-78
2021/01/19 02:43:13;;;;;;;74.53;33.23;;;;;;;1.13;100.00;100654.88;5048240;28;20033;-78
2021/01/19 02:45:45;;;;;;;71.93;31.70;;;;;;;1.19;100.00;100651.53;5013154;28;20041;-78
2021/01/19 02:48:11;;;;;;;70.77;33.57;;;;;;;1.15;100.00;100652.31;5014487;28;20041;-78
2021/01/19 02:50:38;;;;;;;66.20;29.83;;;;;;;1.09;100.00;100655.69;5013701;28;20063;-78
2021/01/19 02:53:05;;;;;;;61.00;27.47;;;;;;;1.07;100.00;100659.09;5026901;28;20398;-78
2021/01/19 02:55:32;;;;;;;66.97;29.90;;;;;;;1.07;100.00;100653.88;4993336;28;20095;-79
2021/01/19 02:58:20;;;;;;;68.57;28.93;;;;;;;1.12;100.00;100653.13;5036752;28;20485;-78
2021/01/19 03:01:04;;;;;;;77.93;32.67;;;;;;;1.11;100.00;100646.19;5024467;28;20037;-78
2021/01/19 03:03:33;;;;;;;;;;;;;;;1.08;100.00;100653.91;5037102;28;20036;-79
2021/01/19 03:06:03;;;;;;;65.67;28.80;;;;;;;1.09;100.00;100652.19;5043931;28;19921;-78
2021/01/19 03:08:30;;;;;;;68.27;26.87;;;;;;;1.07;100.00;100644.34;5029453;28;20100;-78
2021/01/19 03:10:57;;;;;;;64.27;29.60;;;;;;;1.09;100.00;100640.09;5030559;28;20037;-78
2021/01/19 03:13:23;;;;;;;80.70;29.90;;;;;;;1.08;100.00;100634.81;5014271;28;20437;-78
2021/01/19 03:16:09;;;;;;;63.53;27.70;;;;;;;1.04;100.00;100641.72;5015619;28;20036;-78
2021/01/19 03:18:36;;;;;;;67.27;29.60;;;;;;;1.11;100.00;100632.28;5028026;28;20040;-78
2021/01/19 03:21:07;;;;;;;70.77;28.60;;;;;;;1.09;100.00;100636.56;5018001;28;20041;-78
2021/01/19 03:23:34;;;;;;;65.67;26.40;;;;;;;1.09;100.00;100633.97;5041523;28;20063;-78
2021/01/19 03:26:00;;;;;;;67.00;29.23;;;;;;;1.05;100.00;100640.00;5023544;28;20037;-78
2021/01/19 03:28:26;;;;;;;65.70;28.23;;;;;;;1.11;100.00;100637.50;5038664;28;20037;-78
2021/01/19 03:30:53;;;;;;;68.40;29.47;;;;;;;1.13;100.00;100649.69;5030452;28;20111;-79
2021/01/19 03:33:19;;;;;;;64.90;28.17;;;;;;;1.08;100.00;100642.63;5030139;28;20589;-78
2021/01/19 03:35:45;;;;;;;64.37;29.93;;;;;;;1.12;100.00;100637.53;5029716;28;20037;-78
2021/01/19 03:38:12;;;;;;;57.17;25.17;;;;;;;1.09;100.00;100636.56;5013411;28;20591;-79
2021/01/19 03:40:39;;;;;;;65.10;27.77;;;;;;;1.07;100.00;100641.75;5033578;28;20036;-78
2021/01/19 03:43:06;;;;;;;63.30;29.13;;;;;;;1.03;100.00;100634.75;5029645;28;20650;-78
2021/01/19 03:45:32;;;;;;;64.43;28.93;;;;;;;1.06;100.00;100641.75;5035358;28;20055;-79
2021/01/19 03:47:58;;;;;;;63.17;26.97;;;;;;;1.07;100.00;100627.88;5025473;28;20040;-78
2021/01/19 03:50:25;;;;;;;59.30;25.77;;;;;;;1.05;100.00;100629.59;5026820;28;20044;-77
2021/01/19 03:52:51;;;;;;;63.70;27.93;;;;;;;1.03;100.00;100628.69;5035844;28;20032;-77
2021/01/19 03:55:17;;;;;;;64.27;28.73;;;;;;;1.00;100.00;100634.69;5040726;28;20037;-77
2021/01/19 03:57:43;;;;;;;62.17;27.27;;;;;;;1.02;100.00;100634.75;5029009;28;20041;-77
2021/01/19 04:00:11;;;;;;;57.90;26.63;;;;;;;0.97;100.00;100632.03;5032649;28;20067;-77
2021/01/19 04:02:37;;;;;;;65.33;28.80;;;;;;;1.01;100.00;100626.06;5006039;28;20044;-78
2021/01/19 04:05:04;;;;;;;59.93;26.00;;;;;;;0.99;100.00;100629.47;5024020;28;20109;-77
2021/01/19 04:07:30;;;;;;;60.00;27.90;;;;;;;0.97;100.00;100624.25;5029002;28;20512;-77
2021/01/19 04:09:57;;;;;;;49.80;24.97;;;;;;;0.98;100.00;100618.19;5007009;28;20056;-76
2021/01/19 04:12:23;;;;;;;53.13;23.93;;;;;;;0.99;100.00;100617.34;5028039;28;20029;-77
2021/01/19 04:14:49;;;;;;;68.60;29.00;;;;;;;0.97;100.00;100612.97;5029312;28;20045;-77
2021/01/19 04:17:15;;;;;;;57.73;25.33;;;;;;;1.00;100.00;100616.47;5015485;28;20044;-77
2021/01/19 04:19:42;;;;;;;66.97;30.30;;;;;;;0.94;100.00;100623.31;5033543;28;20405;-76
2021/01/19 04:22:08;;;;;;;56.10;25.10;;;;;;;0.94;100.00;100618.13;5010968;28;20506;-76
2021/01/19 04:24:34;;;;;;;54.77;25.07;;;;;;;0.89;100.00;100630.16;5049313;28;20576;-76
2021/01/19 04:27:00;;;;;;;57.20;26.43;;;;;;;0.87;100.00;100627.53;5028559;28;20441;-77
2021/01/19 04:29:26;;;;;;;61.40;28.83;;;;;;;0.89;100.00;100627.56;5028375;28;20111;-77
2021/01/19 04:31:52;;;;;;;53.63;24.50;;;;;;;0.92;100.00;100625.00;5012110;28;20045;-77
2021/01/19 04:34:18;;;;;;;56.03;25.73;;;;;;;0.96;100.00;100619.03;5052265;28;20437;-77
2021/01/19 04:36:44;;;;;;;60.93;26.07;;;;;;;0.90;100.00;100614.56;5010390;28;20046;-77
2021/01/19 04:39:11;;;;;;;56.57;26.93;;;;;;;0.89;100.00;100617.16;5012089;28;20053;-77
2021/01/19 04:41:39;;;;;;;59.37;26.53;;;;;;;0.90;100.00;100616.28;5028576;28;20068;-77
2021/01/19 04:44:07;;;;;;;62.83;27.17;;;;;;;0.89;100.00;100623.22;5029646;28;20074;-76
2021/01/19 04:46:34;;;;;;;55.40;26.23;;;;;;;0.89;100.00;100614.56;5025484;28;20045;-76
2021/01/19 04:49:03;;;;;;;55.47;25.10;;;;;;;0.90;100.00;100611.09;5028094;28;20102;-76
2021/01/19 04:51:33;;;;;;;55.23;24.60;;;;;;;0.87;100.00;100606.72;5017782;28;20045;-76
2021/01/19 04:54:02;;;;;;;56.10;25.57;;;;;;;0.86;100.00;100606.72;5012454;28;20620;-76
2021/01/19 04:56:29;;;;;;;53.23;24.97;;;;;;;0.83;100.00;100602.31;5022535;28;20037;-76
2021/01/19 04:58:56;;;;;;;55.70;25.40;;;;;;;0.80;100.00;100607.47;5026938;28;20044;-76
2021/01/19 05:01:51;;;;;;;52.70;24.87;;;;;;;0.80;100.00;100595.34;5022526;28;20092;-77
2021/01/19 05:04:26;;;;;;;51.03;24.17;;;;;;;0.85;100.00;100598.03;5035586;28;20505;-77
2021/01/19 05:07:31;;;;;;;62.40;24.73;;;;;;;0.83;100.00;100582.38;5033135;28;20037;-76
2021/01/19 05:10:24;;;;;;;51.65;23.92;;;;;;;0.88;100.00;100576.38;5046090;28;20032;-76
2021/01/19 05:12:51;;;;;;;48.57;23.00;;;;;;;0.92;100.00;100579.06;5004354;28;20409;-77
2021/01/19 05:15:17;;;;;;;55.00;23.20;;;;;;;0.87;100.00;100578.13;5016162;28;20037;-76
2021/01/19 05:17:43;;;;;;;51.33;23.73;;;;;;;0.84;100.00;100560.75;5027181;28;20044;-76
2021/01/19 05:20:10;;;;;;;55.93;24.20;;;;;;;0.83;100.00;100563.28;5030180;28;20033;-77
2021/01/19 05:22:37;;;;;;;48.03;22.87;;;;;;;0.81;100.00;100562.41;5016200;28;20086;-76
2021/01/19 05:25:04;;;;;;;50.83;24.53;;;;;;;0.83;100.00;100552.88;5045927;28;20041;-77
2021/01/19 05:27:31;;;;;;;52.10;22.63;;;;;;;0.81;100.00;100557.19;5016122;28;20048;-77
2021/01/19 05:30:06;;;;;;;47.70;23.53;;;;;;;0.76;100.00;100554.53;5013849;28;20045;-77
2021/01/19 05:32:39;;;;;;;51.43;24.10;;;;;;;0.77;100.00;100552.81;5025365;28;20075;-77
2021/01/19 05:35:19;;;;;;;47.63;23.13;;;;;;;0.82;100.00;100548.53;5047046;28;20040;-77
2021/01/19 05:37:58;;;;;;;44.80;20.97;;;;;;;0.83;100.00;100545.09;5024099;28;20037;-77
2021/01/19 05:40:28;;;;;;;52.57;22.27;;;;;;;0.80;100.00;100547.66;5020992;28;20041;-77
2021/01/19 05:42:55;;;;;;;44.00;22.77;;;;;;;0.81;100.00;100542.47;5031706;28;20040;-77
2021/01/19 05:45:21;;;;;;;45.97;21.87;;;;;;;0.75;100.00;100547.56;5012238;28;20049;-76
2021/01/19 05:47:47;;;;;;;45.93;21.43;;;;;;;0.78;100.00;100542.44;5034765;28;20724;-77
2021/01/19 05:50:14;;;;;;;48.80;22.40;;;;;;;0.82;100.00;100552.03;5031897;28;20254;-77
2021/01/19 05:52:42;;;;;;;44.57;21.73;;;;;;;0.79;100.00;100544.19;5015503;28;20497;-76
2021/01/19 05:55:09;;;;;;;47.87;21.50;;;;;;;0.80;100.00;100545.91;5026979;28;20034;-76
2021/01/19 05:57:35;;;;;;;46.97;21.33;;;;;;;0.79;100.00;100538.09;5045318;28;20536;-76
2021/01/19 06:00:05;;;;;;;44.07;20.93;;;;;;;0.84;100.00;100547.75;5024293;28;20040;-77
2021/01/19 06:02:36;;;;;;;41.07;20.37;;;;;;;0.80;100.00;100540.72;5015678;28;20044;-77
2021/01/19 06:05:07;;;;;;;46.27;22.13;;;;;;;0.80;100.00;100529.44;5031361;28;20136;-77
2021/01/19 06:07:34;;;;;;;41.33;21.30;;;;;;;0.81;100.00;100526.00;5049357;28;20502;-77
2021/01/19 06:10:08;;;;;;;42.80;19.83;;;;;;;0.79;100.00;100533.78;5033724;28;20669;-76
2021/01/19 06:12:35;;;;;;;39.20;19.63;;;;;;;0.75;100.00;100526.75;5027760;28;20044;-77
2021/01/19 06:15:01;;;;;;;39.90;19.13;;;;;;;0.77;100.00;100529.41;5028461;23;20038;-78
2021/01/19 06:17:27;;;;;;;42.67;20.00;;;;;;;0.73;100.00;100527.59;5025376;28;20088;-78
2021/01/19 06:19:57;;;;;;;44.00;21.07;;;;;;;0.70;100.00;100520.63;5044424;28;20044;-79
2021/01/19 06:22:24;;;;;;;41.93;19.00;;;;;;;0.71;100.00;100526.69;5048785;28;20037;-79
2021/01/19 06:24:58;;;;;;;42.00;21.13;;;;;;;0.71;100.00;100517.16;5031605;28;20451;-78
2021/01/19 06:27:24;;;;;;;47.55;20.90;;;;;;;0.69;100.00;100512.81;5015797;28;20041;-78
2021/01/19 06:30:01;;;;;;;38.17;20.63;;;;;;;0.71;100.00;100503.28;5040154;28;20044;-77
2021/01/19 06:32:31;;;;;;;45.07;20.17;;;;;;;0.67;100.00;100504.94;5017720;28;20041;-78
2021/01/19 06:35:15;;;;;;;40.80;18.87;;;;;;;0.74;100.00;100500.72;5007055;28;20376;-78
2021/01/19 06:37:47;;;;;;;37.72;19.50;;;;;;;0.70;100.00;100491.16;5023519;28;20452;-78
2021/01/19 06:40:16;;;;;;;37.57;18.07;;;;;;;0.68;100.00;100482.44;5025389;28;20124;-78
2021/01/19 06:42:53;;;;;;;41.00;19.40;;;;;;;0.69;100.00;100481.59;5013197;28;20044;-78
2021/01/19 06:45:20;;;;;;;32.57;17.53;;;;;;;0.71;100.00;100475.56;5017534;28;20080;-78
2021/01/19 06:47:48;;;;;;;34.93;18.03;;;;;;;0.73;100.00;100475.59;5012039;28;20038;-78
2021/01/19 06:50:20;;;;;;;35.30;18.33;;;;;;;0.74;100.00;100466.94;5025030;28;20037;-78
2021/01/19 06:53:13;;;;;;;35.53;16.40;;;;;;;0.76;100.00;100460.94;5028472;28;20036;-78
2021/01/19 06:55:58;;;;;;;37.23;16.57;;;;;;;0.71;100.00;100456.50;5029975;28;20060;-78
2021/01/19 06:58:52;;;;;;;32.43;16.60;;;;;;;0.68;100.00;100451.25;5038526;28;20033;-78
2021/01/19 07:01:20;;;;;;;33.57;16.67;;;;;;;0.64;100.00;100452.03;5020012;28;20044;-78
2021/01/19 07:03:47;;;;;;;33.33;16.17;;;;;;;0.65;100.00;100441.66;5019302;28;20035;-78
2021/01/19 07:06:15;;;;;;;30.40;16.07;;;;;;;0.61;100.00;100442.47;5006549;28;20103;-78
2021/01/19 07:09:05;;;;;;;36.97;16.40;;;;;;;0.61;100.00;100439.00;5025224;28;20092;-78
2021/01/19 07:11:57;;;;;;;34.43;15.73;;;;;;;0.61;100.00;100431.19;5017714;28;20490;-78
2021/01/19 07:15:03;;;;;;;37.00;17.23;;;;;;;0.61;100.00;100418.19;5021115;28;20033;-79
2021/01/19 07:17:50;;;;;;;31.77;16.03;;;;;;;0.64;100.00;100418.25;5025548;28;20057;-78
2021/01/19 07:20:27;;;;;;;30.23;14.80;;;;;;;0.60;100.00;100416.47;5033640;28;20530;-78
2021/01/19 07:23:06;;;;;;;29.40;13.97;;;;;;;0.61;100.00;100420.81;4997500;28;20045;-78
2021/01/19 07:25:34;;;;;;;28.10;14.97;;;;;;;0.61;100.00;100411.28;5020894;28;20231;-78
2021/01/19 07:28:02;;;;;;;28.50;14.93;;;;;;;0.60;100.00;100419.06;5022579;28;20049;-78
2021/01/19 07:30:28;;;;;;;27.90;14.67;;;;;;;0.57;100.00;100407.75;5042377;28;20155;-78
2021/01/19 07:32:55;;;;;;;30.30;13.93;;;;;;;0.58;100.00;100416.41;4998624;28;20041;-78
2021/01/19 07:35:25;;;;;;;30.33;14.83;;;;;;;0.62;100.00;100413.03;5026076;28;20041;-78
2021/01/19 07:38:06;;;;;;;29.15;14.27;;;;;;;0.67;100.00;100402.69;5016675;28;20043;-79
2021/01/19 07:40:43;;;;;;;27.50;13.53;;;;;;;0.67;100.00;100408.75;5022324;28;20053;-77
2021/01/19 07:43:17;;;;;;;27.20;13.40;;;;;;;0.66;100.00;100406.13;5022911;28;20041;-78
2021/01/19 07:45:54;;;;;;;28.67;15.70;;;;;;;0.68;100.00;100399.25;5020289;28;20075;-77
2021/01/19 07:48:31;;;;;;;27.80;13.53;;;;;;;0.70;100.00;100395.81;5036824;28;20033;-78
2021/01/19 07:50:58;;;;;;;23.90;12.23;;;;;;;0.68;100.00;100388.84;5023856;28;20047;-78
2021/01/19 07:53:25;;;;;;;27.23;13.43;;;;;;;0.69;100.00;100394.06;5016245;28;20386;-78
2021/01/19 07:55:51;;;;;;;23.97;11.17;;;;;;;0.70;100.00;100389.75;5034260;28;20049;-78
2021/01/19 07:58:22;;;;;;;24.53;11.77;;;;;;;0.71;100.00;100387.16;5015279;28;20045;-77
2021/01/19 08:00:56;;;;;;;24.40;11.97;;;;;;;0.75;100.00;100386.34;5006529;28;20044;-77
2021/01/19 08:03:27;;;;;;;24.80;12.10;;;;;;;0.75;100.00;100388.06;5002016;28;20037;-78
2021/01/19 08:05:55;;;;;;;27.77;13.03;;;;;;;0.74;100.00;100379.41;5019115;28;20386;-77
2021/01/19 08:08:21;;;;;;;22.57;11.50;;;;;;;0.76;100.00;100376.84;5016628;28;20059;-77
2021/01/19 08:10:55;;;;;;;23.03;12.23;;;;;;;0.79;100.00;100362.16;5023383;28;20485;-77
2021/01/19 08:13:21;;;;;;;20.33;10.48;;;;;;;0.83;100.00;100360.44;5001764;28;20037;-77
2021/01/19 08:16:00;;;;;;;17.27;9.27;;;;;;;0.84;100.00;100351.78;5042146;28;20478;-77
2021/01/19 08:18:37;;;;;;;20.30;10.00;;;;;;;0.89;100.00;100352.75;5011359;28;20037;-76
2021/01/19 08:21:04;;;;;;;19.40;9.73;;;;;;;0.86;100.00;100352.72;5020722;28;20035;-78
2021/01/19 08:23:33;;;;;;;19.80;10.87;;;;;;;0.88;100.00;100351.00;5013839;28;20065;-78
2021/01/19 08:26:07;;;;;;;19.43;9.60;;;;;;;0.89;100.00;100341.47;5029407;28;20083;-79
2021/01/19 08:28:35;;;;;;;17.70;10.67;;;;;;;0.96;100.00;100333.78;5017770;28;20048;-78
2021/01/19 08:31:01;;;;;;;18.73;9.30;;;;;;;0.91;100.00;100324.16;5015914;28;20087;-76
2021/01/19 08:33:28;;;;;;;17.33;9.97;;;;;;;0.98;100.00;100324.25;5014923;28;20033;-76
2021/01/19 08:35:55;;;;;;;17.37;9.80;;;;;;;1.01;100.00;100323.41;5029024;28;20037;-77
2021/01/19 08:38:23;;;;;;;15.20;8.20;;;;;;;1.03;100.00;100320.00;5015708;28;20045;-76
2021/01/19 08:40:50;;;;;;;16.10;9.10;;;;;;;1.06;100.00;100314.81;5016246;28;20053;-77
2021/01/19 08:43:16;;;;;;;19.80;10.97;;;;;;;1.05;100.00;100315.69;5039547;28;20041;-77
2021/01/19 08:45:43;;;;;;;16.03;8.53;;;;;;;1.05;100.00;100309.59;5008532;28;20041;-77
2021/01/19 08:48:10;;;;;;;13.50;8.20;;;;;;;1.11;100.00;100300.16;5002590;28;20572;-78
2021/01/19 08:50:59;;;;;;;15.10;7.83;;;;;;;1.12;100.00;100314.03;5010550;28;20033;-78
2021/01/19 08:53:27;;;;;;;13.87;7.87;;;;;;;1.12;100.00;100304.50;5024767;28;20041;-78
2021/01/19 08:55:53;;;;;;;14.87;7.40;;;;;;;1.22;100.00;100299.41;5012461;28;20068;-77
2021/01/19 08:58:20;;;;;;;13.63;7.13;;;;;;;1.25;100.00;100289.88;5016046;28;20091;-76
2021/01/19 09:00:47;;;;;;;19.97;8.30;;;;;;;1.25;100.00;100297.69;5022551;28;20032;-77
2021/01/19 09:03:15;;;;;;;11.83;7.33;;;;;;;1.31;100.00;100299.50;5025523;28;20041;-77
2021/01/19 09:06:07;;;;;;;11.87;7.00;;;;;;;1.28;100.00;100284.72;5016277;28;20036;-77
2021/01/19 09:08:36;;;;;;;14.07;8.03;;;;;;;1.29;100.00;100277.78;5006590;28;20041;-76
2021/01/19 09:11:07;;;;;;;15.23;7.53;;;;;;;1.34;100.00;100281.31;5005166;28;20045;-77
2021/01/19 09:13:49;;;;;;;13.40;6.87;;;;;;;1.39;100.00;100277.91;5036147;28;20034;-76
2021/01/19 09:16:23;;;;;;;12.03;6.80;;;;;;;1.38;100.00;100275.28;5018719;28;20044;-76
2021/01/19 09:18:57;;;;;;;14.13;7.50;;;;;;;1.42;100.00;100266.63;5022899;28;20033;-77
2021/01/19 09:21:25;;;;;;;15.70;8.57;;;;;;;1.41;100.00;100265.75;5043297;28;20106;-77
2021/01/19 09:23:51;;;;;;;11.77;6.80;;;;;;;1.42;100.00;100264.03;5005133;28;20129;-77
2021/01/19 09:26:17;;;;;;;15.67;8.17;;;;;;;1.43;100.00;100258.00;5006258;28;20115;-77
2021/01/19 09:28:44;;;;;;;17.17;8.97;;;;;;;1.48;100.00;100250.22;5008200;28;20306;-77
2021/01/19 09:31:20;;;;;;;14.93;8.70;;;;;;;1.48;100.00;100251.09;5009276;28;20032;-76
2021/01/19 09:33:49;;;;;;;12.47;7.80;;;;;;;1.53;100.00;100245.94;5032243;28;20446;-77
2021/01/19 09:36:15;;;;;;;12.90;7.40;;;;;;;1.61;100.00;100241.69;5016998;28;20091;-77
2021/01/19 09:38:43;;;;;;;12.03;7.40;;;;;;;1.57;100.00;100235.56;5026860;28;20053;-77
2021/01/19 09:41:15;;;;;;;14.87;8.03;;;;;;;1.59;100.00;100228.63;5000867;28;20033;-77
2021/01/19 09:43:46;;;;;;;15.57;7.73;;;;;;;1.59;100.00;100218.22;5023593;28;20437;-77
2021/01/19 09:46:12;;;;;;;15.10;7.53;;;;;;;1.55;100.00;100215.59;5012124;28;20284;-77
2021/01/19 09:48:45;;;;;;;12.57;6.80;;;;;;;1.55;100.00;100210.38;5019851;28;20095;-77
2021/01/19 09:51:11;;;;;;;14.40;7.93;;;;;;;1.60;100.00;100206.97;5022417;28;20037;-77
2021/01/19 09:53:39;;;;;;;15.80;8.23;;;;;;;1.55;100.00;100194.75;4998722;28;20309;-77
2021/01/19 09:56:15;;;;;;;15.93;7.43;;;;;;;1.53;100.00;100189.53;5019112;28;20043;-77
2021/01/19 09:58:41;;;;;;;14.53;8.33;;;;;;;1.53;100.00;100186.94;5017765;28;20091;-76
2021/01/19 10:01:07;;;;;;;14.37;8.03;;;;;;;1.57;100.00;100167.00;5040933;28;20046;-76
2021/01/19 10:03:35;;;;;;;17.20;8.60;;;;;;;1.63;100.00;100147.09;5022345;28;20034;-76
2021/01/19 10:06:06;;;;;;;17.20;8.00;;;;;;;1.72;100.00;100145.41;5020710;28;20045;-76
2021/01/19 10:08:36;;;;;;;13.10;7.43;;;;;;;1.69;100.00;100139.31;5020513;28;20041;-76
2021/01/19 10:11:03;;;;;;;11.73;7.20;;;;;;;1.55;100.00;100130.53;5009006;28;20054;-76
2021/01/19 10:13:32;;;;;;;12.97;8.03;;;;;;;1.54;100.00;100118.38;5027588;28;20116;-76
2021/01/19 10:16:08;;;;;;;15.53;8.60;;;;;;;1.57;100.00;100114.91;5006433;28;20680;-77
2021/01/19 10:18:35;;;;;;;13.93;8.23;;;;;;;1.55;100.00;100107.09;5003906;28;20116;-76
2021/01/19 10:21:01;;;;;;;16.27;8.90;;;;;;;1.58;100.00;100095.84;4998535;28;20489;-76
2021/01/19 10:23:33;;;;;;;15.73;8.17;;;;;;;1.53;100.00;100090.63;5019267;28;20382;-77
2021/01/19 10:26:09;;;;;;;16.50;7.70;;;;;;;1.61;100.00;100090.66;5008579;28;20040;-77
2021/01/19 10:28:41;;;;;;;14.50;7.97;;;;;;;1.57;100.00;100086.28;5019029;28;20069;-78
2021/01/19 10:31:17;;;;;;;13.20;7.90;;;;;;;1.62;100.00;100082.88;5016490;28;20049;-78
2021/01/19 10:33:56;;;;;;;15.20;8.30;;;;;;;1.55;100.00;100075.00;5040781;28;20058;-77
2021/01/19 10:36:26;;;;;;;14.10;7.60;;;;;;;1.60;100.00;100068.97;5034801;28;20056;-79
2021/01/19 10:38:53;;;;;;;14.23;8.00;;;;;;;1.55;100.00;100075.88;4992907;28;20760;-77
2021/01/19 10:41:27;;;;;;;15.03;7.93;;;;;;;1.55;100.00;100057.66;5032780;28;20040;-76
2021/01/19 10:43:54;;;;;;;14.40;7.60;;;;;;;1.55;100.00;100057.66;5025799;28;20159;-76
2021/01/19 10:46:22;;;;;;;16.73;7.83;;;;;;;1.45;100.00;100045.44;5025961;28;20531;-77
2021/01/19 10:49:09;;;;;;;14.50;7.87;;;;;;;1.50;100.00;100043.72;5007064;28;20086;-78
2021/01/19 10:51:36;;;;;;;11.67;6.77;;;;;;;1.46;100.00;100047.19;5009459;28;20045;-78
2021/01/19 10:54:06;;;;;;;14.77;8.60;;;;;;;1.43;100.00;100036.75;5011511;28;20292;-78
2021/01/19 10:56:33;;;;;;;14.60;7.73;;;;;;;1.40;100.00;100034.13;5023425;28;20552;-77
2021/01/19 10:59:00;;;;;;;13.40;7.57;;;;;;;1.42;100.00;100040.19;5011296;28;20052;-76
2021/01/19 11:01:26;;;;;;;11.27;6.57;;;;;;;1.42;100.00;100022.84;5034957;28;20094;-77
2021/01/19 11:03:53;;;;;;;12.57;7.03;;;;;;;1.42;100.00;100011.56;5002548;28;20079;-77
2021/01/19 11:06:20;;;;;;;10.23;7.30;;;;;;;1.39;100.00;100011.56;5022490;28;20040;-77
2021/01/19 11:08:46;;;;;;;13.47;7.37;;;;;;;1.47;100.00;100007.28;4990463;28;20049;-77
2021/01/19 11:11:13;;;;;;;10.67;6.50;;;;;;;1.35;100.00;100004.59;5038184;28;20037;-77
2021/01/19 11:13:39;;;;;;;10.90;6.63;;;;;;;1.35;100.00;100002.00;5020090;28;20037;-77
2021/01/19 11:16:06;;;;;;;16.77;8.67;;;;;;;1.38;100.00;99997.66;5019100;28;20415;-77
2021/01/19 11:18:34;;;;;;;13.47;7.47;;;;;;;1.34;100.00;99990.69;5016267;28;20053;-77
2021/01/19 11:21:01;;;;;;;16.47;7.23;;;;;;;1.32;100.00;99984.63;5021180;28;20044;-77
2021/01/19 11:23:28;;;;;;;11.47;6.87;;;;;;;1.35;100.00;99981.19;5016639;28;20041;-77
2021/01/19 11:25:54;;;;;;;11.27;5.50;;;;;;;1.38;100.00;99970.78;5006387;28;20044;-77